Manicore, Brazil
Current Conditions -  °F | °C
As of 9:00 PM on Wednesday 26 Nov 2014 (Local Time) from SBMN Reporting Station
Few Clouds Few Clouds  
Wind Chill: 86°   Ceiling: Unl
Heat Index: 92°   Visibility: 6mi
Dew Point: 72°   Wind: 5mph
Humidity: 62%   Direction: 50°NE
Pressure: 29.77"   Gusts: NA
Location:  5.82°S, 61.28°W
Report Text: SBMN 270100Z 05004KT 9999 FEW020 30/22 Q1008
Loading
Personal Weather Stations






























Interactive Weather Map New forecast layout! Learn more

10-Day Weather Forecast

Advertisements
Track Severe Weather on mobile